Time;durP1;ratioP1;P1;durP2;ratioP2;P2;SDS_P1;SDS_P2;PMS_P1;PMS_P2;Temp;Humidity;BMP_temperature;BMP_pressure;BME280_temperature;BME280_humidity;BME280_pressure;Samples;Min_cycle;Max_cycle;Signal;HPM_P1;HPM_P2
2021/07/29 00:01:20;;;;;;;15.35;5.17;;;;;;;23.43;87.86;101111.87;1830050;78;21004;-76
2021/07/29 00:03:47;;;;;;;19.92;5.95;;;;;;;23.41;88.60;101102.46;1823254;78;20909;-74
2021/07/29 00:06:15;;;;;;;11.73;4.95;;;;;;;23.32;90.22;101088.41;1822861;78;20921;-73
2021/07/29 00:08:44;;;;;;;11.57;4.75;;;;;;;23.30;91.41;101073.67;1823289;78;20941;-76
2021/07/29 00:11:12;;;;;;;14.75;5.20;;;;;;;23.31;92.56;101058.11;1823232;78;20949;-74
2021/07/29 00:13:39;;;;;;;12.47;5.10;;;;;;;23.38;93.14;101059.08;1823066;78;21063;-78
2021/07/29 00:16:06;;;;;;;11.28;4.97;;;;;;;23.45;93.72;101062.19;1823287;78;20905;-77
2021/07/29 00:21:19;;;;;;;14.55;5.53;;;;;;;23.03;100.00;101043.20;1824658;77;21831;-78
2021/07/29 00:23:49;;;;;;;16.37;5.30;;;;;;;22.71;100.00;101064.49;1817880;78;20923;-75
2021/07/29 00:26:17;;;;;;;15.20;5.85;;;;;;;22.47;100.00;101032.27;1809021;79;21013;-81
2021/07/29 00:28:46;;;;;;;13.45;4.92;;;;;;;22.27;100.00;101005.40;1808507;79;37869;-75
2021/07/29 00:31:13;;;;;;;10.10;6.15;;;;;;;22.21;100.00;101017.94;1808610;79;21558;-73
2021/07/29 00:33:39;;;;;;;24.55;20.35;;;;;;;22.22;100.00;101005.06;1808785;79;21115;-79
2021/07/29 00:36:08;;;;;;;26.30;13.15;;;;;;;22.22;100.00;101007.70;1808923;79;20922;-83
2021/07/29 00:38:35;;;;;;;20.65;12.13;;;;;;;22.17;100.00;100998.64;1808909;79;21456;-79
2021/07/29 00:41:02;;;;;;;25.15;16.93;;;;;;;22.10;100.00;100987.91;1808989;79;20875;-81
2021/07/29 00:43:30;;;;;;;20.37;11.35;;;;;;;22.07;100.00;100986.42;1808836;79;20915;-79
2021/07/29 00:45:58;;;;;;;27.45;12.98;;;;;;;22.02;100.00;100991.38;1808801;79;21127;-75
2021/07/29 00:48:25;;;;;;;23.60;9.40;;;;;;;22.08;100.00;100985.94;1808444;79;20921;-75
2021/07/29 00:50:52;;;;;;;20.62;12.90;;;;;;;22.16;100.00;100960.80;1808733;79;21559;-75
2021/07/29 00:53:19;;;;;;;15.20;9.80;;;;;;;22.25;100.00;100954.48;1808740;79;20961;-79
2021/07/29 00:55:47;;;;;;;20.72;13.43;;;;;;;22.33;100.00;100945.23;1782741;79;20930;-74
2021/07/29 00:58:13;;;;;;;29.30;20.48;;;;;;;22.38;100.00;100942.05;1808460;79;21116;-78
2021/07/29 01:00:40;;;;;;;21.40;10.70;;;;;;;22.43;100.00;100948.47;1808676;79;20930;-75
2021/07/29 01:03:07;;;;;;;23.07;20.17;;;;;;;22.47;100.00;100936.56;1808738;79;20862;-75
2021/07/29 01:05:34;;;;;;;26.77;23.85;;;;;;;22.53;100.00;100940.34;1808746;79;20942;-77
2021/07/29 01:08:01;;;;;;;29.87;25.25;;;;;;;22.59;100.00;100935.19;1808782;79;20914;-75
2021/07/29 01:10:28;;;;;;;26.40;21.70;;;;;;;;;;1808728;79;21149;-76
2021/07/29 01:12:54;;;;;;;21.77;19.50;;;;;;;22.76;100.00;100917.45;1819807;78;20898;-76
2021/07/29 01:15:21;;;;;;;20.82;18.12;;;;;;;22.78;100.00;100912.83;1816532;79;21540;-76
2021/07/29 01:17:48;;;;;;;27.48;21.07;;;;;;;22.84;100.00;100916.09;1816668;79;20926;-74
2021/07/29 01:20:21;;;;;;;28.42;23.52;;;;;;;22.91;100.00;100916.23;1816760;79;21372;-73
2021/07/29 01:22:49;;;;;;;29.82;26.77;;;;;;;22.97;100.00;100919.49;1816769;79;21122;-74
2021/07/29 01:25:16;;;;;;;27.25;24.35;;;;;;;23.00;100.00;100919.14;1816508;79;20929;-75
2021/07/29 01:27:43;;;;;;;28.50;25.37;;;;;;;23.04;100.00;100933.66;1816660;79;20909;-75
2021/07/29 01:30:11;;;;;;;25.65;23.12;;;;;;;23.07;100.00;100936.78;1816753;79;20989;-76
2021/07/29 01:32:39;;;;;;;28.30;24.15;;;;;;;23.13;100.00;100947.19;1817178;79;20846;-76
2021/07/29 01:35:11;;;;;;;29.20;23.70;;;;;;;23.16;100.00;100947.66;1816859;79;21128;-74
2021/07/29 01:37:40;;;;;;;34.92;22.27;;;;;;;23.20;100.00;100931.73;1816873;79;20933;-74
2021/07/29 01:40:09;;;;;;;22.48;17.42;;;;;;;23.24;100.00;100930.05;1816648;79;20882;-74
2021/07/29 01:42:36;;;;;;;21.20;15.38;;;;;;;23.28;100.00;100930.03;1816792;79;20882;-75
2021/07/29 01:45:03;;;;;;;18.23;10.90;;;;;;;23.30;100.00;100934.14;1816609;79;21468;-74
2021/07/29 01:47:30;;;;;;;18.25;11.68;;;;;;;23.34;100.00;100935.94;1816533;79;21132;-74
2021/07/29 01:49:56;;;;;;;21.25;12.30;;;;;;;23.35;100.00;100930.48;1816603;79;21519;-75
2021/07/29 01:52:22;;;;;;;20.60;10.48;;;;;;;23.41;100.00;100942.22;1816645;79;21008;-74
2021/07/29 01:54:50;;;;;;;12.47;8.80;;;;;;;23.43;100.00;100945.50;1815446;78;20976;-73
2021/07/29 01:57:16;;;;;;;14.80;8.90;;;;;;;23.43;100.00;100938.37;1819750;78;20893;-74
2021/07/29 01:59:43;;;;;;;12.75;8.48;;;;;;;23.44;100.00;100940.03;1819008;78;21064;-74
2021/07/29 02:02:10;;;;;;;14.85;8.50;;;;;;;23.45;100.00;100937.69;1816909;79;20961;-74
2021/07/29 02:04:37;;;;;;;17.87;8.38;;;;;;;23.49;100.00;100941.64;1816791;79;21020;-74
2021/07/29 02:07:04;;;;;;;17.15;8.38;;;;;;;23.52;100.00;100943.93;1816837;79;20970;-73
2021/07/29 02:09:31;;;;;;;13.72;8.33;;;;;;;23.56;100.00;100946.55;1816866;78;21527;-74
2021/07/29 02:11:59;;;;;;;13.98;8.50;;;;;;;23.60;100.00;100943.88;1816918;78;21527;-73
2021/07/29 02:14:28;;;;;;;15.88;8.80;;;;;;;23.62;100.00;100947.66;1816975;79;21504;-73
2021/07/29 02:16:57;;;;;;;15.83;8.58;;;;;;;23.62;100.00;100955.61;1817003;79;21504;-74
2021/07/29 02:19:24;;;;;;;25.35;11.70;;;;;;;23.60;100.00;100977.00;1816876;79;21027;-74
2021/07/29 02:21:51;;;;;;;17.77;11.18;;;;;;;23.52;100.00;100976.22;1812235;79;20937;-77
2021/07/29 02:24:18;;;;;;;32.38;12.90;;;;;;;23.46;100.00;100983.55;1806131;79;21141;-80
2021/07/29 02:26:45;;;;;;;18.55;11.93;;;;;;;23.43;100.00;100985.23;1806353;79;20890;-76
2021/07/29 02:29:12;;;;;;;18.40;12.85;;;;;;;23.33;100.00;100984.11;1806144;79;21547;-75
2021/07/29 02:31:40;;;;;;;22.60;10.40;;;;;;;23.25;100.00;100975.40;1803520;78;21485;-73
2021/07/29 02:34:07;;;;;;;23.32;11.25;;;;;;;23.21;100.00;100981.55;1805436;79;20867;-75
2021/07/29 02:36:35;;;;;;;18.57;12.05;;;;;;;23.17;100.00;100986.36;1806037;79;20942;-79
2021/07/29 02:39:06;;;;;;;16.55;10.93;;;;;;;23.12;100.00;100994.51;1810624;79;20895;-77
2021/07/29 02:41:33;;;;;;;16.10;10.32;;;;;;;23.02;100.00;100993.41;1806097;79;21533;-73
2021/07/29 02:44:00;;;;;;;15.72;10.08;;;;;;;22.93;100.00;100977.73;1805849;79;21500;-73
2021/07/29 02:46:27;;;;;;;12.33;9.35;;;;;;;22.91;100.00;100968.63;1806093;78;20957;-73
2021/07/29 02:48:54;;;;;;;15.03;9.85;;;;;;;22.94;100.00;100971.45;1805781;79;21122;-73
2021/07/29 02:51:21;;;;;;;25.80;10.68;;;;;;;22.93;100.00;100974.59;1805634;79;20990;-73
2021/07/29 02:53:49;;;;;;;14.35;9.10;;;;;;;22.91;100.00;100979.74;1816715;79;20889;-73
2021/07/29 02:56:15;;;;;;;11.95;8.20;;;;;;;22.88;100.00;100990.16;1818107;79;21115;-77
2021/07/29 02:58:47;;;;;;;18.40;8.85;;;;;;;22.86;100.00;100992.16;1803493;79;20962;-75
2021/07/29 03:01:12;;;;;;;17.40;9.03;;;;;;;22.85;100.00;100980.41;1781366;80;21491;-73
2021/07/29 03:03:39;;;;;;;17.92;8.45;;;;;;;22.83;100.00;100982.41;1781468;80;20928;-73
2021/07/29 03:06:05;;;;;;;17.45;9.68;;;;;;;22.85;100.00;100975.11;1783412;80;20930;-73
2021/07/29 03:08:32;;;;;;;14.47;8.25;;;;;;;22.88;100.00;100972.95;1776308;80;21051;-72
2021/07/29 03:10:58;;;;;;;12.93;7.92;;;;;;;22.90;100.00;100970.98;1749211;82;20997;-72
2021/07/29 03:13:26;;;;;;;13.50;8.55;;;;;;;22.93;100.00;100973.77;1748901;82;21136;-72
2021/07/29 03:15:54;;;;;;;13.65;7.50;;;;;;;22.96;100.00;100979.55;1808580;79;21397;-72
2021/07/29 03:18:21;;;;;;;21.37;7.87;;;;;;;23.01;100.00;100989.09;1806464;79;20868;-72
2021/07/29 03:20:48;;;;;;;15.65;7.37;;;;;;;23.01;100.00;100985.63;1806299;79;20918;-73
2021/07/29 03:23:15;;;;;;;15.15;7.28;;;;;;;23.02;100.00;100983.31;1815516;79;21507;-73
2021/07/29 03:25:42;;;;;;;15.32;8.03;;;;;;;23.03;100.00;100995.55;1816558;79;21126;-72
2021/07/29 03:28:08;;;;;;;20.15;8.05;;;;;;;23.05;100.00;101002.81;1816672;79;20905;-72
2021/07/29 03:30:35;;;;;;;12.95;7.78;;;;;;;23.07;100.00;101010.90;1816749;79;20938;-72
2021/07/29 03:33:01;;;;;;;12.53;7.30;;;;;;;23.10;100.00;101001.28;1816772;79;20969;-72
2021/07/29 03:35:28;;;;;;;14.68;7.75;;;;;;;23.13;100.00;101003.59;1817016;78;20878;-72
2021/07/29 03:37:55;;;;;;;9.93;6.83;;;;;;;23.14;100.00;101003.92;1816774;78;21138;-72
2021/07/29 03:40:22;;;;;;;18.25;7.55;;;;;;;23.15;100.00;101003.42;1816696;79;20918;-72
2021/07/29 03:42:49;;;;;;;13.30;7.55;;;;;;;23.18;100.00;101001.25;1816856;79;20867;-72
2021/07/29 03:45:16;;;;;;;17.98;7.85;;;;;;;23.21;100.00;101002.72;1816659;79;21020;-72
2021/07/29 03:47:44;;;;;;;15.15;8.30;;;;;;;23.22;100.00;100997.77;1816679;79;20937;-72
2021/07/29 03:50:10;;;;;;;12.88;7.80;;;;;;;23.24;100.00;100990.46;1816691;79;21492;-73
2021/07/29 03:52:37;;;;;;;16.57;7.95;;;;;;;23.25;100.00;100992.12;1816680;79;21400;-73
2021/07/29 03:55:06;;;;;;;16.00;7.78;;;;;;;23.27;100.00;100992.75;1816417;78;21439;-73
2021/07/29 03:57:33;;;;;;;13.32;6.45;;;;;;;23.28;100.00;100986.97;1816763;78;20978;-73
2021/07/29 04:00:01;;;;;;;12.93;7.33;;;;;;;23.29;100.00;101002.69;1816930;78;20913;-73
2021/07/29 04:02:30;;;;;;;17.12;9.05;;;;;;;23.30;100.00;101009.62;1816547;79;21197;-73
2021/07/29 04:04:59;;;;;;;14.40;6.95;;;;;;;23.32;100.00;101014.26;1816614;79;21455;-73
2021/07/29 04:07:25;;;;;;;15.30;7.17;;;;;;;23.38;99.42;101008.75;1816827;79;20933;-72
2021/07/29 04:09:53;;;;;;;10.80;6.65;;;;;;;23.43;99.21;101019.66;1816717;79;21083;-73
2021/07/29 04:12:19;;;;;;;14.78;6.10;;;;;;;23.48;99.03;101017.33;1816778;79;21574;-72
2021/07/29 04:14:47;;;;;;;10.23;6.10;;;;;;;23.52;98.04;101013.30;1816711;79;21146;-73
2021/07/29 04:17:13;;;;;;;10.45;5.75;;;;;;;23.56;96.95;101007.98;1816696;79;20951;-72
2021/07/29 04:19:44;;;;;;;9.23;5.95;;;;;;;23.62;96.21;101004.62;1816929;78;20918;-72
2021/07/29 04:22:12;;;;;;;15.08;6.60;;;;;;;23.69;95.05;101009.05;1814067;78;20961;-71
2021/07/29 04:24:39;;;;;;;11.25;6.67;;;;;;;23.74;93.85;101015.12;1806236;79;21001;-72
2021/07/29 04:27:06;;;;;;;13.78;6.05;;;;;;;23.78;93.41;101021.72;1806252;79;21226;-72
2021/07/29 04:29:34;;;;;;;12.47;6.47;;;;;;;23.82;92.41;101022.20;1806128;79;21005;-73
2021/07/29 04:32:01;;;;;;;11.73;6.58;;;;;;;23.86;91.66;101025.65;1806342;79;20977;-72
2021/07/29 04:34:28;;;;;;;12.85;6.50;;;;;;;23.93;90.70;101033.72;1806429;79;20970;-72
2021/07/29 04:36:55;;;;;;;10.53;5.85;;;;;;;23.99;88.70;101026.37;1806198;79;20997;-72
2021/07/29 04:39:22;;;;;;;12.78;6.47;;;;;;;24.03;87.08;101023.16;1806091;79;21778;-72
2021/07/29 04:41:48;;;;;;;13.68;7.37;;;;;;;24.08;85.63;101020.81;1805962;79;20863;-72
2021/07/29 04:44:15;;;;;;;20.52;6.85;;;;;;;24.14;84.76;101024.59;1806171;79;20946;-72
2021/07/29 04:46:43;;;;;;;16.90;6.30;;;;;;;24.18;84.48;101028.55;1806151;79;21541;-72
2021/07/29 04:49:11;;;;;;;16.05;5.47;;;;;;;24.25;84.69;101035.28;1805998;79;20950;-72
2021/07/29 04:51:39;;;;;;;10.08;5.45;;;;;;;24.31;84.17;101038.53;1806169;79;21174;-72
2021/07/29 04:54:06;;;;;;;11.68;6.00;;;;;;;24.36;83.55;101034.32;1806184;79;20828;-72
2021/07/29 04:56:32;;;;;;;13.32;5.87;;;;;;;24.42;83.12;101037.57;1806083;79;20937;-73
2021/07/29 04:58:59;;;;;;;13.08;6.03;;;;;;;24.46;82.83;101038.87;1806277;79;21080;-71
2021/07/29 05:01:26;;;;;;;10.28;6.25;;;;;;;24.49;82.69;101036.34;1806290;79;20978;-72
2021/07/29 05:03:53;;;;;;;8.68;5.60;;;;;;;24.52;82.41;101031.50;1806182;79;21919;-71
2021/07/29 05:06:20;;;;;;;12.78;5.83;;;;;;;24.55;81.58;101032.46;1806047;79;20945;-72
2021/07/29 05:08:48;;;;;;;14.53;6.08;;;;;;;24.61;81.04;101037.53;1806126;79;20878;-72
2021/07/29 05:11:15;;;;;;;12.55;5.83;;;;;;;24.66;80.26;101036.50;1806432;79;20875;-72
2021/07/29 05:13:42;;;;;;;9.43;5.70;;;;;;;24.72;79.68;101040.56;1806374;79;20926;-72
2021/07/29 05:16:09;;;;;;;9.55;5.85;;;;;;;24.76;79.39;101035.19;1806156;79;20997;-73
2021/07/29 05:18:37;;;;;;;17.62;5.62;;;;;;;24.79;78.89;101032.70;1806331;79;21039;-73
2021/07/29 05:21:07;;;;;;;10.65;5.85;;;;;;;24.86;78.25;101038.13;1806006;79;20874;-74
2021/07/29 05:23:33;;;;;;;13.70;5.78;;;;;;;24.90;77.66;101030.91;1813855;79;21043;-74
2021/07/29 05:26:00;;;;;;;7.35;5.00;;;;;;;24.99;77.13;101026.31;1816745;79;20945;-74
2021/07/29 05:28:27;;;;;;;14.38;8.65;;;;;;;25.05;74.60;101027.72;1817149;79;21194;-74
2021/07/29 05:30:54;;;;;;;11.97;7.80;;;;;;;25.12;73.66;101023.81;1816672;79;20961;-72
2021/07/29 05:33:20;;;;;;;9.58;6.60;;;;;;;25.19;73.31;101026.87;1817109;79;21515;-73
2021/07/29 05:35:47;;;;;;;10.03;7.08;;;;;;;25.25;73.01;101021.31;1817113;79;20929;-73
2021/07/29 05:38:13;;;;;;;12.82;7.55;;;;;;;25.30;71.68;101020.27;1816921;78;21543;-72
2021/07/29 05:40:40;;;;;;;11.85;6.33;;;;;;;25.36;71.13;101029.31;1817025;79;21143;-74
2021/07/29 05:43:07;;;;;;;10.50;6.12;;;;;;;25.42;70.79;101025.39;1817084;79;20909;-74
2021/07/29 05:45:34;;;;;;;14.23;7.08;;;;;;;25.46;70.12;101017.38;1816722;78;21441;-72
2021/07/29 05:48:01;;;;;;;13.90;7.33;;;;;;;25.53;69.93;101015.61;1817449;79;20890;-73
2021/07/29 05:50:28;;;;;;;10.00;6.53;;;;;;;25.61;69.66;101017.33;1816940;78;20929;-73
2021/07/29 05:52:56;;;;;;;10.68;6.80;;;;;;;25.67;69.12;101023.20;1817011;79;21515;-77
2021/07/29 05:55:23;;;;;;;11.73;5.83;;;;;;;25.73;67.92;101029.91;1794299;79;21266;-73
2021/07/29 05:57:49;;;;;;;18.10;8.00;;;;;;;25.80;67.55;101033.97;1816831;78;21317;-79
2021/07/29 06:00:17;;;;;;;11.88;7.22;;;;;;;25.85;67.30;101038.19;1816792;78;21016;-73
2021/07/29 06:02:44;;;;;;;19.65;15.53;;;;;;;25.88;67.09;101029.83;1816688;78;21012;-72
2021/07/29 06:05:11;;;;;;;34.65;30.95;;;;;;;25.92;67.83;101028.44;1816910;78;21293;-74
2021/07/29 06:07:37;;;;;;;31.02;27.32;;;;;;;25.96;68.18;101031.04;1816615;79;21392;-73
2021/07/29 06:10:05;;;;;;;26.33;19.32;;;;;;;26.02;68.65;101041.41;1816694;78;20957;-74
2021/07/29 06:12:31;;;;;;;29.18;21.12;;;;;;;26.04;68.92;101044.69;1816398;78;20978;-73
2021/07/29 06:15:05;;;;;;;23.42;14.07;;;;;;;26.07;68.96;101037.15;1718020;78;21511;-73
2021/07/29 06:26:21;;;;;;;19.12;17.23;;;;;;;26.23;69.14;101035.56;1813216;78;21034;-73
2021/07/29 06:28:47;;;;;;;16.50;11.97;;;;;;;26.33;69.11;101037.05;1815706;79;21045;-73
2021/07/29 06:31:14;;;;;;;14.10;9.83;;;;;;;26.36;69.54;101026.84;1815002;78;21782;-71
2021/07/29 06:33:41;;;;;;;24.65;18.05;;;;;;;26.39;69.83;101030.45;1815171;79;20977;-74
2021/07/29 06:36:08;;;;;;;40.73;24.77;;;;;;;26.43;69.47;101030.37;1817192;78;21016;-73
2021/07/29 06:38:37;;;;;;;56.02;35.88;;;;;;;26.49;69.61;101024.78;1815018;79;21035;-72
2021/07/29 06:41:05;;;;;;;48.55;41.70;;;;;;;26.58;69.21;101032.94;1815386;79;21039;-74
2021/07/29 06:43:33;;;;;;;39.48;32.55;;;;;;;26.65;68.99;101031.11;1815014;78;21621;-73
2021/07/29 06:46:06;;;;;;;25.92;15.85;;;;;;;26.72;69.18;101031.47;1815253;79;20965;-75
2021/07/29 06:48:33;;;;;;;26.12;20.95;;;;;;;26.81;67.94;101038.30;1814749;79;21079;-75
2021/07/29 06:51:05;;;;;;;26.97;22.02;;;;;;;26.92;67.41;101028.11;1814899;78;21041;-74
2021/07/29 06:53:35;;;;;;;16.25;11.12;;;;;;;26.99;67.55;101039.12;1814918;79;20965;-74
2021/07/29 06:56:05;;;;;;;11.43;7.78;;;;;;;27.05;66.50;101033.50;1815202;79;21749;-73
2021/07/29 06:58:32;;;;;;;14.35;7.72;;;;;;;27.09;64.92;101031.55;1814796;78;21008;-74
2021/07/29 07:01:04;;;;;;;17.12;10.50;;;;;;;27.16;65.07;101033.73;1815018;79;21239;-73
2021/07/29 07:03:32;;;;;;;16.77;9.58;;;;;;;27.22;65.25;101037.42;1815112;78;20957;-76
2021/07/29 07:06:01;;;;;;;29.32;25.17;;;;;;;27.23;65.77;101039.08;1814914;78;21197;-72
2021/07/29 07:08:28;;;;;;;23.35;14.25;;;;;;;27.29;65.85;101040.44;1815166;79;21192;-73
2021/07/29 07:10:54;;;;;;;17.55;8.90;;;;;;;27.36;64.44;101035.12;1815557;79;21602;-74
2021/07/29 07:13:21;;;;;;;12.45;7.72;;;;;;;27.45;64.12;101024.61;1815641;79;20938;-73
2021/07/29 07:15:48;;;;;;;14.80;6.72;;;;;;;27.54;63.80;101034.59;1815281;79;21045;-72
2021/07/29 07:18:17;;;;;;;12.28;6.53;;;;;;;27.60;64.05;101033.78;1815398;78;21019;-72
2021/07/29 07:20:43;;;;;;;11.68;6.37;;;;;;;27.66;64.24;101036.45;1814622;78;21133;-75
2021/07/29 07:23:11;;;;;;;14.13;7.62;;;;;;;27.71;63.94;101029.16;1814882;78;21032;-72
2021/07/29 07:25:38;;;;;;;22.55;15.23;;;;;;;27.77;64.32;101028.34;1814734;79;21649;-79
2021/07/29 07:28:05;;;;;;;14.87;7.92;;;;;;;27.81;64.37;101029.08;1815820;79;20977;-72
2021/07/29 07:30:32;;;;;;;12.37;5.83;;;;;;;27.89;60.15;101028.03;1816008;79;21502;-79
2021/07/29 07:33:01;;;;;;;13.08;6.45;;;;;;;27.96;59.92;101023.52;1815323;79;21216;-75
2021/07/29 07:35:28;;;;;;;10.85;5.08;;;;;;;28.03;58.75;101028.86;1815591;78;20862;-74
2021/07/29 07:37:55;;;;;;;9.53;5.15;;;;;;;28.05;57.86;101028.98;1814889;79;21016;-74
2021/07/29 07:40:22;;;;;;;14.45;5.97;;;;;;;28.11;57.13;101031.36;1814861;79;21100;-74
2021/07/29 07:42:50;;;;;;;12.65;5.75;;;;;;;28.17;56.55;101022.02;1815449;79;20988;-73
2021/07/29 07:45:22;;;;;;;9.28;5.62;;;;;;;28.23;57.43;101033.20;1815948;78;21816;-78
2021/07/29 07:47:50;;;;;;;14.28;5.85;;;;;;;28.31;55.54;101028.14;1815486;78;21491;-79
2021/07/29 07:50:17;;;;;;;12.03;5.60;;;;;;;28.36;55.76;101021.17;1815443;78;20980;-80
2021/07/29 07:52:45;;;;;;;11.88;5.17;;;;;;;28.42;55.59;101020.02;1814591;79;21555;-75
2021/07/29 07:55:13;;;;;;;14.00;6.08;;;;;;;28.46;56.34;101027.41;1815475;78;21044;-77
2021/07/29 07:57:39;;;;;;;16.40;6.00;;;;;;;28.51;56.01;101028.92;1814975;79;21528;-75
2021/07/29 08:00:09;;;;;;;10.88;6.05;;;;;;;28.59;56.91;101019.87;1814981;79;20927;-75
2021/07/29 08:02:35;;;;;;;18.07;6.22;;;;;;;28.68;56.45;101017.31;1815178;78;20973;-74
2021/07/29 08:05:03;;;;;;;14.58;5.97;;;;;;;28.72;56.90;101016.66;1814799;78;21088;-78
2021/07/29 08:07:29;;;;;;;12.45;6.12;;;;;;;28.78;56.70;101015.02;1815042;79;21040;-74
2021/07/29 08:09:56;;;;;;;10.93;6.22;;;;;;;28.83;56.10;101017.35;1818543;77;21734;-78
2021/07/29 08:12:24;;;;;;;15.35;6.03;;;;;;;28.84;57.03;101013.66;1840143;78;20966;-73
2021/07/29 08:14:51;;;;;;;17.32;6.78;;;;;;;28.84;57.11;101016.33;1839993;77;21064;-73
2021/07/29 08:17:18;;;;;;;10.82;5.33;;;;;;;28.83;56.90;101008.52;1840077;78;21577;-85
2021/07/29 08:19:46;;;;;;;12.90;5.85;;;;;;;28.88;57.03;101014.85;1818978;77;21011;-75
2021/07/29 08:22:14;;;;;;;8.53;5.28;;;;;;;28.90;57.29;101014.66;1839924;78;21541;-73
2021/07/29 08:24:40;;;;;;;14.58;6.15;;;;;;;28.94;57.70;101009.20;1840589;77;20990;-76
2021/07/29 08:27:07;;;;;;;13.50;6.35;;;;;;;29.04;58.74;101010.08;1837127;78;21466;-77
2021/07/29 08:29:35;;;;;;;15.80;6.40;;;;;;;29.16;58.52;101009.70;1835121;78;21074;-82
2021/07/29 08:32:04;;;;;;;17.85;6.58;;;;;;;29.20;57.91;101013.56;1857546;77;21056;-74
2021/07/29 08:34:31;;;;;;;14.55;6.83;;;;;;;29.22;58.47;101004.83;1824207;77;21144;-79
2021/07/29 08:37:00;;;;;;;15.20;6.53;;;;;;;29.31;59.16;101007.58;1858798;77;21018;-77
2021/07/29 08:39:28;;;;;;;15.78;6.97;;;;;;;29.46;58.18;101001.91;1858456;77;21037;-74
2021/07/29 08:41:55;;;;;;;17.07;6.95;;;;;;;29.57;57.34;101011.93;1858548;77;21550;-73
2021/07/29 08:44:22;;;;;;;22.10;7.53;;;;;;;29.59;56.51;101017.36;1859217;76;21139;-76
2021/07/29 08:46:51;;;;;;;13.28;7.40;;;;;;;29.59;56.81;101013.86;1858275;77;21020;-76
2021/07/29 08:49:22;;;;;;;19.87;16.40;;;;;;;29.65;56.47;101007.13;1858866;77;20863;-76
2021/07/29 08:51:50;;;;;;;27.30;16.20;;;;;;;29.74;56.34;101003.14;1809199;77;22219;-80
2021/07/29 08:54:18;;;;;;;13.83;8.20;;;;;;;29.87;55.73;101000.91;1839713;77;21011;-76
2021/07/29 08:56:45;;;;;;;13.08;6.53;;;;;;;29.96;54.61;100995.59;1837362;78;21058;-77
2021/07/29 08:59:12;;;;;;;13.60;6.28;;;;;;;29.98;54.60;100991.34;1837963;78;21129;-80
2021/07/29 09:01:45;;;;;;;15.45;6.85;;;;;;;29.96;54.71;100981.39;1837726;77;20946;-74
2021/07/29 09:04:13;;;;;;;10.68;6.60;;;;;;;29.96;55.75;100988.91;1782965;80;21011;-75
2021/07/29 09:07:02;;;;;;;19.82;7.00;;;;;;;30.05;55.01;100980.89;1845778;77;21022;-74
2021/07/29 09:09:47;;;;;;;14.68;6.60;;;;;;;30.20;54.91;100985.36;1845849;77;21089;-73
2021/07/29 09:12:21;;;;;;;18.32;9.20;;;;;;;30.28;53.30;100978.36;1834803;78;21031;-74
2021/07/29 09:14:48;;;;;;;;;;;;;;;30.36;54.36;100983.95;1837047;78;21013;-81
2021/07/29 09:17:15;;;;;;;27.98;18.55;;;;;;;30.48;52.47;100966.13;1835163;78;20092;-72
2021/07/29 09:19:48;;;;;;;26.20;13.88;;;;;;;30.54;52.59;100972.47;1834937;78;21588;-74
2021/07/29 09:22:24;;;;;;;15.10;7.50;;;;;;;30.63;53.26;100973.28;1835140;78;21046;-74
2021/07/29 09:25:04;;;;;;;15.48;6.87;;;;;;;30.79;53.37;100975.86;1834939;78;21267;-72
2021/07/29 09:27:43;;;;;;;12.00;6.55;;;;;;;30.93;52.73;100965.25;1834825;78;21517;-77
2021/07/29 09:30:30;;;;;;;14.78;6.92;;;;;;;31.00;51.31;100963.85;1835101;77;21496;-73
2021/07/29 09:33:12;;;;;;;17.35;6.30;;;;;;;30.95;51.94;100957.84;1835221;77;20959;-77
2021/07/29 09:35:45;;;;;;;14.63;6.40;;;;;;;30.89;51.49;100946.13;1835027;78;21022;-76
2021/07/29 09:38:35;;;;;;;13.20;6.25;;;;;;;30.97;51.68;100940.19;1834817;78;21787;-77
2021/07/29 09:41:06;;;;;;;14.40;6.12;;;;;;;31.08;50.75;100938.87;1833687;77;20966;-82
2021/07/29 09:43:36;;;;;;;16.20;6.08;;;;;;;31.14;51.48;100932.62;1835009;78;21054;-76
2021/07/29 09:46:18;;;;;;;17.55;6.67;;;;;;;31.25;50.70;100931.81;1834637;78;21081;-75
2021/07/29 09:48:45;;;;;;;18.42;6.33;;;;;;;31.35;50.67;100929.91;1834576;77;21046;-76
2021/07/29 09:51:15;;;;;;;12.70;6.62;;;;;;;31.48;50.45;100933.20;1834719;77;21555;-75
2021/07/29 09:53:41;;;;;;;16.65;6.40;;;;;;;31.61;50.60;100937.56;1834271;78;20927;-76
2021/07/29 09:56:10;;;;;;;11.40;6.08;;;;;;;31.75;50.72;100940.29;1834461;78;21759;-75
2021/07/29 09:58:41;;;;;;;12.07;5.85;;;;;;;31.92;50.47;100933.70;1835515;77;21552;-78
2021/07/29 10:01:08;;;;;;;13.50;6.60;;;;;;;32.02;49.42;100923.19;1834634;78;21042;-72
2021/07/29 10:03:35;;;;;;;15.38;6.17;;;;;;;32.23;49.32;100923.14;1834929;78;21822;-74
2021/07/29 10:06:06;;;;;;;13.95;6.67;;;;;;;32.85;48.00;100913.36;1813547;78;20980;-73
2021/07/29 10:08:38;;;;;;;15.25;6.20;;;;;;;33.33;46.92;100905.63;1834919;78;20895;-73
2021/07/29 10:11:07;;;;;;;9.43;4.97;;;;;;;33.67;46.27;100902.39;1834041;77;21454;-79
2021/07/29 10:13:37;;;;;;;11.83;6.20;;;;;;;34.26;44.55;100903.50;1834965;77;20930;-81
2021/07/29 10:16:07;;;;;;;10.98;5.50;;;;;;;35.08;42.45;100902.77;1834490;77;21711;-77
2021/07/29 10:18:57;;;;;;;13.25;5.97;;;;;;;35.77;41.06;100898.71;1834532;78;21105;-74
2021/07/29 10:21:29;;;;;;;11.63;5.67;;;;;;;36.32;38.06;100894.13;1835259;78;21537;-77
2021/07/29 10:23:58;;;;;;;12.05;6.10;;;;;;;36.54;37.88;100893.41;1834889;78;21050;-76
2021/07/29 10:26:26;;;;;;;11.20;5.62;;;;;;;36.77;35.62;100890.75;1835170;77;21130;-79
2021/07/29 10:28:53;;;;;;;12.58;5.55;;;;;;;36.98;36.42;100884.30;1835176;78;21202;-72
2021/07/29 10:31:20;;;;;;;11.75;5.60;;;;;;;37.02;36.04;100893.50;1801189;78;21017;-76
2021/07/29 10:33:50;;;;;;;11.45;6.15;;;;;;;36.73;34.73;100896.42;1828906;78;21514;-73
2021/07/29 10:36:44;;;;;;;15.72;5.60;;;;;;;36.38;36.59;100900.36;1835961;78;21043;-75
2021/07/29 10:39:12;;;;;;;12.43;5.30;;;;;;;36.22;36.09;100906.81;1834675;78;21089;-80
2021/07/29 10:41:45;;;;;;;16.02;5.70;;;;;;;35.67;37.13;100893.81;1835943;77;21276;-74
2021/07/29 10:44:38;;;;;;;12.20;5.08;;;;;;;35.13;37.37;100894.47;1835182;78;20978;-75
2021/07/29 10:47:07;;;;;;;9.83;4.53;;;;;;;34.92;37.85;100886.16;1834758;78;22499;-76
2021/07/29 10:50:06;;;;;;;9.88;5.40;;;;;;;34.82;37.14;100894.69;1834561;78;21604;-74
2021/07/29 10:52:35;;;;;;;13.72;4.75;;;;;;;34.61;37.28;100892.33;1835119;77;21025;-79
2021/07/29 10:55:10;;;;;;;7.95;4.65;;;;;;;34.34;33.60;100894.96;1839295;78;21128;-77
2021/07/29 10:57:42;;;;;;;13.98;5.30;;;;;;;34.17;33.84;100895.58;1838514;78;21014;-74
2021/07/29 11:00:20;;;;;;;10.15;4.72;;;;;;;34.15;32.91;100892.30;1838947;78;20997;-77
2021/07/29 11:02:58;;;;;;;10.23;4.67;;;;;;;34.12;33.35;100886.59;1838193;78;21011;-74
2021/07/29 11:05:39;;;;;;;11.05;4.97;;;;;;;34.07;34.40;100887.34;1838721;77;21050;-78
2021/07/29 11:08:12;;;;;;;11.20;5.25;;;;;;;34.14;35.67;100888.53;1808570;78;21226;-78
2021/07/29 11:10:43;;;;;;;12.45;6.10;;;;;;;34.06;35.53;100887.05;1836864;78;20971;-77
2021/07/29 11:13:24;;;;;;;15.68;6.42;;;;;;;34.04;37.75;100881.92;1837005;77;20979;-80
2021/07/29 11:15:49;;;;;;;16.48;6.40;;;;;;;34.21;39.00;100889.16;1835250;78;21593;-82
2021/07/29 11:18:19;;;;;;;14.38;12.00;;;;;;;34.42;39.48;100879.70;1828173;78;21679;-79
2021/07/29 11:20:46;;;;;;;20.88;12.10;;;;;;;34.42;39.04;100891.84;1836228;78;21949;-73
2021/07/29 11:23:14;;;;;;;11.60;5.72;;;;;;;34.26;38.08;100890.03;1838839;78;21009;-78
2021/07/29 11:25:59;;;;;;;15.00;7.62;;;;;;;34.24;37.13;100884.62;1839548;77;20986;-75
2021/07/29 11:28:26;;;;;;;12.85;7.78;;;;;;;34.27;37.33;100882.20;1838802;78;20920;-75
2021/07/29 11:30:53;;;;;;;17.80;6.53;;;;;;;34.26;37.59;100876.55;1830165;78;20913;-77
2021/07/29 11:33:22;;;;;;;11.88;5.45;;;;;;;34.19;38.33;100866.50;1815087;78;21522;-78